Yorktown Express — WDD6127 — position and weather

sailwx.info

Track history (hours):
 
Tides and Currents Weather Stations Pressure Air Temp Water Temp Dewpoint Dewpoint Depression Visibility Wind Speed Wind Dir Waves Ship Positions

Yorktown Express

Owner: Marine Transport Management, Inc., Jacksonville, FL. More information available from US FCC via Universal Licensing System and Coast Guard Vessel Documentation Center.

Last reported at 2014-Oct-21 15:05 UTC. Time now 2014-Oct-22 04:43 UTC.
Position N 36°52' W 075°46'.

Type: Ship. MMSI: 367168650.

Date/timePositionNaut miles runAvg speedWind from/ knotsBaromVisibWave heightAir tempDewpointWater temp
2014-Oct-21 15:05N 36°52' W 075°46'1912.1
2014-Oct-21 13:33N 36°59' W 076°08'10 9.9
2014-Oct-21 12:32N 36°57' W 076°20'1 1.2
2014-Oct-21 11:33N 36°55' W 076°20'0 0.0
2014-Oct-21 10:33N 36°55' W 076°20'0 0.0
2014-Oct-21 09:16N 36°55' W 076°20'0 0.0
2014-Oct-21 07:28N 36°55' W 076°20'0 0.0
2014-Oct-21 06:31N 36°55' W 076°20'0 0.0
2014-Oct-21 05:28N 36°55' W 076°20'0 0.0
2014-Oct-21 04:22N 36°55' W 076°20'0 0.0
2014-Oct-21 03:31N 36°55' W 076°20'0 0.0
2014-Oct-21 02:28N 36°55' W 076°20'0 0.0
2014-Oct-21 01:13N 36°55' W 076°20'0 0.0
2014-Oct-21 00:25N 36°55' W 076°20'0 0.0
2014-Oct-20 20:07N 36°55' W 076°20'0 0.0
2014-Oct-20 19:25N 36°55' W 076°20'0 0.0
2014-Oct-20 18:33N 36°55' W 076°20'5 5.4
2014-Oct-20 17:33N 37°00' W 076°17'37313.6
2014-Oct-19 14:10N 32°02' W 080°49'712.1
2014-Oct-19 13:33N 32°04' W 080°57'8 8.2
2014-Oct-19 12:33N 32°06' W 081°07'1 1.5
2014-Oct-19 11:33N 32°07' W 081°08'0 0.0
2014-Oct-19 10:32N 32°07' W 081°08'0 0.0
2014-Oct-19 09:29N 32°07' W 081°08'0 0.0
2014-Oct-19 08:32N 32°07' W 081°08'0 0.0
2014-Oct-19 07:32N 32°07' W 081°08'0 0.0
2014-Oct-19 06:32N 32°07' W 081°08'0 0.0
2014-Oct-19 05:32N 32°07' W 081°08'0 0.0
2014-Oct-19 04:32N 32°07' W 081°08'0 0.0
2014-Oct-19 03:32N 32°07' W 081°08'0 0.0
2014-Oct-19 02:32N 32°07' W 081°08'0 0.0
2014-Oct-19 01:32N 32°07' W 081°08'0 0.0
2014-Oct-19 00:32N 32°07' W 081°08'0 0.0
2014-Oct-18 23:26N 32°07' W 081°08'0 0.0
2014-Oct-18 22:32N 32°07' W 081°08'0 0.0
2014-Oct-18 21:32N 32°07' W 081°08'0 0.0
2014-Oct-18 20:32N 32°07' W 081°08'0 0.0
2014-Oct-18 19:32N 32°07' W 081°08'0 0.0
2014-Oct-18 18:29N 32°07' W 081°08'0 0.0
2014-Oct-18 17:32N 32°07' W 081°08'2 1.7
2014-Oct-18 16:33N 32°06' W 081°07'32114.6
2014-Oct-17 18:31N 26°53' W 079°44'2222.9
2014-Oct-17 17:33N 26°31' W 079°46'2323.3
2014-Oct-17 16:34N 26°08' W 079°49'2323.2
2014-Oct-17 15:33N 25°45' W 079°51'2622.5
2014-Oct-17 14:25N 25°20' W 079°58'6820.3
2014-Oct-17 11:04N 24°27' W 080°45'3419.9
2014-Oct-17 09:23N 24°15' W 081°19'76617.9
2014-Oct-15 14:29N 29°11' W 094°30'1111.1
2014-Oct-15 13:32N 29°19' W 094°39'1010.2
2014-Oct-15 12:33N 29°24' W 094°49'1110.7
2014-Oct-15 11:33N 29°33' W 094°55'9 8.9
2014-Oct-15 10:33N 29°41' W 094°59'1 0.7
2014-Oct-15 09:28N 29°41' W 095°00'0 0.0
2014-Oct-15 08:28N 29°41' W 095°00'0 0.0
2014-Oct-15 07:31N 29°41' W 095°00'0 0.0
2014-Oct-15 06:31N 29°41' W 095°00'0 0.0
2014-Oct-15 05:28N 29°41' W 095°00'0 0.0
2014-Oct-15 04:28N 29°41' W 095°00'0 0.0
2014-Oct-15 03:28N 29°41' W 095°00'0 0.0
2014-Oct-15 02:31N 29°41' W 095°00'0 0.0
2014-Oct-15 01:31N 29°41' W 095°00'0 0.0
2014-Oct-15 00:28N 29°41' W 095°00'0 0.0
2014-Oct-14 23:31N 29°41' W 095°00'0 0.0
2014-Oct-14 22:28N 29°41' W 095°00'0 0.0
2014-Oct-14 21:31N 29°41' W 095°00'0 0.0
2014-Oct-14 20:28N 29°41' W 095°00'0 0.0
2014-Oct-14 19:28N 29°41' W 095°00'0 0.0
2014-Oct-14 18:28N 29°41' W 095°00'0 0.0
2014-Oct-14 17:28N 29°41' W 095°00'0 0.0
2014-Oct-14 16:31N 29°41' W 095°00'0 0.0
2014-Oct-14 15:28N 29°41' W 095°00'0 0.0
2014-Oct-14 14:22N 29°41' W 095°00'0 0.0
2014-Oct-14 13:28N 29°41' W 095°00'0 0.0
2014-Oct-14 12:31N 29°41' W 095°00'0 0.0
2014-Oct-14 11:31N 29°41' W 095°00'0 0.0
2014-Oct-14 10:31N 29°41' W 095°00'0 0.0
2014-Oct-14 09:28N 29°41' W 095°00'0 0.0
2014-Oct-14 08:31N 29°41' W 095°00'0 0.0
2014-Oct-14 07:28N 29°41' W 095°00'0 0.0
2014-Oct-14 06:31N 29°41' W 095°00'0 0.0
2014-Oct-14 05:31N 29°41' W 095°00'0 0.0
2014-Oct-14 04:31N 29°41' W 095°00'0 0.0
2014-Oct-14 03:28N 29°41' W 095°00'0 0.1
2014-Oct-14 02:33N 29°41' W 095°00'5 4.7
2014-Oct-14 01:33N 29°37' W 094°57'1212.0
2014-Oct-14 00:33N 29°27' W 094°50'1312.9
2014-Oct-13 23:33N 29°19' W 094°38'81217.3
2014-Oct-12 00:33N 25°32' W 079°60'1615.9
2014-Oct-11 23:33N 25°48' W 079°59'1716.7
2014-Oct-11 22:33N 26°04' W 080°04'3 2.5
2014-Oct-11 21:24N 26°04' W 080°07'0 0.0
2014-Oct-11 20:24N 26°04' W 080°07'0 0.0
2014-Oct-11 19:27N 26°04' W 080°07'0 0.0
2014-Oct-11 18:30N 26°04' W 080°07'0 0.0
2014-Oct-11 17:27N 26°04' W 080°07'0 0.0
2014-Oct-11 16:30N 26°04' W 080°07'0 0.0
2014-Oct-11 15:33N 26°04' W 080°07'  
Track history (hours):
 
Tides and Currents Weather Stations Pressure Air Temp Water Temp Dewpoint Dewpoint Depression Visibility Wind Speed Wind Dir Waves Ship Positions

Yorktown Express

Owner: Marine Transport Management, Inc., Jacksonville, FL. More information available from US FCC via Universal Licensing System and Coast Guard Vessel Documentation Center.

Last reported at 2014-Oct-21 15:05 UTC. Time now 2014-Oct-22 04:43 UTC.
Position N 36°52' W 075°46'.

Type: Ship. MMSI: 367168650.

Date/timePositionNaut miles runAvg speedWind from/ knotsBaromVisibWave heightAir tempDewpointWater temp
2014-Oct-21 15:05N 36°52' W 075°46'1912.1
2014-Oct-21 13:33N 36°59' W 076°08'10 9.9
2014-Oct-21 12:32N 36°57' W 076°20'1 1.2
2014-Oct-21 11:33N 36°55' W 076°20'0 0.0
2014-Oct-21 10:33N 36°55' W 076°20'0 0.0
2014-Oct-21 09:16N 36°55' W 076°20'0 0.0
2014-Oct-21 07:28N 36°55' W 076°20'0 0.0
2014-Oct-21 06:31N 36°55' W 076°20'0 0.0
2014-Oct-21 05:28N 36°55' W 076°20'0 0.0
2014-Oct-21 04:22N 36°55' W 076°20'0 0.0
2014-Oct-21 03:31N 36°55' W 076°20'0 0.0
2014-Oct-21 02:28N 36°55' W 076°20'0 0.0
2014-Oct-21 01:13N 36°55' W 076°20'0 0.0
2014-Oct-21 00:25N 36°55' W 076°20'0 0.0
2014-Oct-20 20:07N 36°55' W 076°20'0 0.0
2014-Oct-20 19:25N 36°55' W 076°20'0 0.0
2014-Oct-20 18:33N 36°55' W 076°20'5 5.4
2014-Oct-20 17:33N 37°00' W 076°17'37313.6
2014-Oct-19 14:10N 32°02' W 080°49'712.1
2014-Oct-19 13:33N 32°04' W 080°57'8 8.2
2014-Oct-19 12:33N 32°06' W 081°07'1 1.5
2014-Oct-19 11:33N 32°07' W 081°08'0 0.0
2014-Oct-19 10:32N 32°07' W 081°08'0 0.0
2014-Oct-19 09:29N 32°07' W 081°08'0 0.0
2014-Oct-19 08:32N 32°07' W 081°08'0 0.0
2014-Oct-19 07:32N 32°07' W 081°08'0 0.0
2014-Oct-19 06:32N 32°07' W 081°08'0 0.0
2014-Oct-19 05:32N 32°07' W 081°08'0 0.0
2014-Oct-19 04:32N 32°07' W 081°08'0 0.0
2014-Oct-19 03:32N 32°07' W 081°08'0 0.0
2014-Oct-19 02:32N 32°07' W 081°08'0 0.0
2014-Oct-19 01:32N 32°07' W 081°08'0 0.0
2014-Oct-19 00:32N 32°07' W 081°08'0 0.0
2014-Oct-18 23:26N 32°07' W 081°08'0 0.0
2014-Oct-18 22:32N 32°07' W 081°08'0 0.0
2014-Oct-18 21:32N 32°07' W 081°08'0 0.0
2014-Oct-18 20:32N 32°07' W 081°08'0 0.0
2014-Oct-18 19:32N 32°07' W 081°08'0 0.0
2014-Oct-18 18:29N 32°07' W 081°08'0 0.0
2014-Oct-18 17:32N 32°07' W 081°08'2 1.7
2014-Oct-18 16:33N 32°06' W 081°07'32114.6
2014-Oct-17 18:31N 26°53' W 079°44'2222.9
2014-Oct-17 17:33N 26°31' W 079°46'2323.3
2014-Oct-17 16:34N 26°08' W 079°49'2323.2
2014-Oct-17 15:33N 25°45' W 079°51'2622.5
2014-Oct-17 14:25N 25°20' W 079°58'6820.3
2014-Oct-17 11:04N 24°27' W 080°45'3419.9
2014-Oct-17 09:23N 24°15' W 081°19'76617.9
2014-Oct-15 14:29N 29°11' W 094°30'1111.1
2014-Oct-15 13:32N 29°19' W 094°39'1010.2
2014-Oct-15 12:33N 29°24' W 094°49'1110.7
2014-Oct-15 11:33N 29°33' W 094°55'9 8.9
2014-Oct-15 10:33N 29°41' W 094°59'1 0.7
2014-Oct-15 09:28N 29°41' W 095°00'0 0.0
2014-Oct-15 08:28N 29°41' W 095°00'0 0.0
2014-Oct-15 07:31N 29°41' W 095°00'0 0.0
2014-Oct-15 06:31N 29°41' W 095°00'0 0.0
2014-Oct-15 05:28N 29°41' W 095°00'0 0.0
2014-Oct-15 04:28N 29°41' W 095°00'0 0.0
2014-Oct-15 03:28N 29°41' W 095°00'0 0.0
2014-Oct-15 02:31N 29°41' W 095°00'0 0.0
2014-Oct-15 01:31N 29°41' W 095°00'0 0.0
2014-Oct-15 00:28N 29°41' W 095°00'0 0.0
2014-Oct-14 23:31N 29°41' W 095°00'0 0.0
2014-Oct-14 22:28N 29°41' W 095°00'0 0.0
2014-Oct-14 21:31N 29°41' W 095°00'0 0.0
2014-Oct-14 20:28N 29°41' W 095°00'0 0.0
2014-Oct-14 19:28N 29°41' W 095°00'0 0.0
2014-Oct-14 18:28N 29°41' W 095°00'0 0.0
2014-Oct-14 17:28N 29°41' W 095°00'0 0.0
2014-Oct-14 16:31N 29°41' W 095°00'0 0.0
2014-Oct-14 15:28N 29°41' W 095°00'0 0.0
2014-Oct-14 14:22N 29°41' W 095°00'0 0.0
2014-Oct-14 13:28N 29°41' W 095°00'0 0.0
2014-Oct-14 12:31N 29°41' W 095°00'0 0.0
2014-Oct-14 11:31N 29°41' W 095°00'0 0.0
2014-Oct-14 10:31N 29°41' W 095°00'0 0.0
2014-Oct-14 09:28N 29°41' W 095°00'0 0.0
2014-Oct-14 08:31N 29°41' W 095°00'0 0.0
2014-Oct-14 07:28N 29°41' W 095°00'0 0.0
2014-Oct-14 06:31N 29°41' W 095°00'0 0.0
2014-Oct-14 05:31N 29°41' W 095°00'0 0.0
2014-Oct-14 04:31N 29°41' W 095°00'0 0.0
2014-Oct-14 03:28N 29°41' W 095°00'0 0.1
2014-Oct-14 02:33N 29°41' W 095°00'5 4.7
2014-Oct-14 01:33N 29°37' W 094°57'1212.0
2014-Oct-14 00:33N 29°27' W 094°50'1312.9
2014-Oct-13 23:33N 29°19' W 094°38'81217.3
2014-Oct-12 00:33N 25°32' W 079°60'1615.9
2014-Oct-11 23:33N 25°48' W 079°59'1716.7
2014-Oct-11 22:33N 26°04' W 080°04'3 2.5
2014-Oct-11 21:24N 26°04' W 080°07'0 0.0
2014-Oct-11 20:24N 26°04' W 080°07'0 0.0
2014-Oct-11 19:27N 26°04' W 080°07'0 0.0
2014-Oct-11 18:30N 26°04' W 080°07'0 0.0
2014-Oct-11 17:27N 26°04' W 080°07'0 0.0
2014-Oct-11 16:30N 26°04' W 080°07'0 0.0
2014-Oct-11 15:33N 26°04' W 080°07'  

Dump ship's entire track history